Time;durP1;ratioP1;P1;durP2;ratioP2;P2;SDS_P1;SDS_P2;PMS_P1;PMS_P2;Temp;Humidity;BMP_temperature;BMP_pressure;BME280_temperature;BME280_humidity;BME280_pressure;Samples;Min_cycle;Max_cycle;Signal;HPM_P1;HPM_P2
2023/09/13 00:01:40;;;;;;;8.52;7.68;;;25.90;88.60;;;;;;5011667;28;20058;-81
2023/09/13 00:04:06;;;;;;;7.82;7.03;;;25.80;88.80;;;;;;5012585;28;20037;-81
2023/09/13 00:06:32;;;;;;;11.00;7.22;;;25.80;88.70;;;;;;5010391;28;20109;-81
2023/09/13 00:08:57;;;;;;;8.10;7.07;;;25.80;89.00;;;;;;5011512;28;20049;-80
2023/09/13 00:11:23;;;;;;;8.80;7.05;;;25.80;89.10;;;;;;4993558;28;20044;-80
2023/09/13 00:13:49;;;;;;;7.22;6.53;;;25.80;88.90;;;;;;5008784;28;20129;-80
2023/09/13 00:16:15;;;;;;;7.10;6.40;;;25.80;89.10;;;;;;5019014;28;20398;-79
2023/09/13 00:18:40;;;;;;;8.98;6.88;;;25.80;89.30;;;;;;5009707;28;20030;-80
2023/09/13 00:21:09;;;;;;;7.80;7.07;;;25.80;89.50;;;;;;5006709;28;20030;-80
2023/09/13 00:23:34;;;;;;;7.95;7.15;;;25.80;89.60;;;;;;5008957;28;20030;-80
2023/09/13 00:26:00;;;;;;;9.23;7.47;;;25.80;89.50;;;;;;5002412;28;20030;-80
2023/09/13 00:28:25;;;;;;;8.80;7.47;;;25.80;89.50;;;;;;5011072;28;20046;-79
2023/09/13 00:30:51;;;;;;;7.65;6.55;;;25.70;89.40;;;;;;5012783;28;20041;-80
2023/09/13 00:33:17;;;;;;;7.78;6.93;;;25.80;89.60;;;;;;5012809;28;20041;-80
2023/09/13 00:35:42;;;;;;;7.40;6.70;;;25.70;89.60;;;;;;5009617;28;20030;-81
2023/09/13 00:38:08;;;;;;;9.25;8.25;;;25.70;89.80;;;;;;5015204;28;20037;-80
2023/09/13 00:40:34;;;;;;;8.32;7.43;;;25.70;90.00;;;;;;5011827;28;20497;-78
2023/09/13 00:43:00;;;;;;;7.45;6.65;;;25.70;90.00;;;;;;5013561;28;20112;-77
2023/09/13 00:45:29;;;;;;;10.50;8.15;;;25.60;90.00;;;;;;5008768;28;20038;-77
2023/09/13 00:47:55;;;;;;;10.73;8.13;;;25.60;90.10;;;;;;5015829;28;20161;-77
2023/09/13 00:50:21;;;;;;;8.88;7.95;;;25.60;90.10;;;;;;5012368;28;20289;-79
2023/09/13 00:52:47;;;;;;;9.23;6.65;;;25.60;90.20;;;;;;5010856;28;20037;-79
2023/09/13 00:55:16;;;;;;;7.50;6.80;;;25.60;90.30;;;;;;4996216;28;20252;-79
2023/09/13 00:57:42;;;;;;;9.27;7.68;;;25.60;90.40;;;;;;5013572;28;20382;-79
2023/09/13 01:00:09;;;;;;;8.50;6.90;;;25.60;90.40;;;;;;5015067;28;20060;-82
2023/09/13 01:02:38;;;;;;;8.57;6.72;;;25.60;90.50;;;;;;5021298;28;20030;-82
2023/09/13 01:05:05;;;;;;;9.07;6.85;;;25.60;90.60;;;;;;5015306;28;20030;-81
2023/09/13 01:07:32;;;;;;;7.70;6.82;;;25.60;90.60;;;;;;5016268;28;20038;-78
2023/09/13 01:09:58;;;;;;;10.25;7.28;;;25.60;90.60;;;;;;5015895;28;20045;-77
2023/09/13 01:12:23;;;;;;;7.55;6.85;;;25.50;90.60;;;;;;5015655;28;20559;-76
2023/09/13 01:14:50;;;;;;;7.93;7.07;;;25.50;90.70;;;;;;5015235;28;20038;-77
2023/09/13 01:17:39;;;;;;;8.95;6.88;;;25.50;90.80;;;;;;4999632;28;20382;-76
2023/09/13 01:20:15;;;;;;;8.15;7.07;;;25.50;90.90;;;;;;5015720;28;20066;-76
2023/09/13 01:23:08;;;;;;;8.40;7.18;;;25.50;91.00;;;;;;5011595;28;20542;-76
2023/09/13 01:26:06;;;;;;;8.52;7.00;;;25.50;91.10;;;;;;5011132;28;20030;-77
2023/09/13 01:28:46;;;;;;;8.95;6.78;;;25.50;91.20;;;;;;5014606;28;20053;-77
2023/09/13 01:31:13;;;;;;;8.63;7.35;;;25.50;91.30;;;;;;5015216;28;20038;-77
2023/09/13 01:33:38;;;;;;;8.48;7.40;;;25.50;91.30;;;;;;5013741;28;20103;-77
2023/09/13 01:36:04;;;;;;;8.52;7.43;;;25.40;91.40;;;;;;5012697;28;20530;-76
2023/09/13 01:38:31;;;;;;;7.78;6.97;;;25.50;91.60;;;;;;5028452;28;20040;-77
2023/09/13 01:41:25;;;;;;;9.57;7.15;;;25.40;91.60;;;;;;5008262;28;20034;-77
2023/09/13 01:43:54;;;;;;;7.88;6.97;;;25.50;91.70;;;;;;5013680;28;20137;-78
2023/09/13 01:46:27;;;;;;;8.65;7.75;;;25.50;91.80;;;;;;4993896;28;20041;-78
2023/09/13 01:48:56;;;;;;;8.57;7.68;;;25.50;91.90;;;;;;5012847;28;20192;-78
2023/09/13 01:51:25;;;;;;;8.40;7.03;;;25.50;91.90;;;;;;5013188;28;20054;-78
2023/09/13 01:53:51;;;;;;;8.48;7.70;;;25.50;92.00;;;;;;5011847;28;20037;-79
2023/09/13 01:56:21;;;;;;;10.13;8.48;;;25.40;92.00;;;;;;5010534;28;20045;-78
2023/09/13 01:58:48;;;;;;;8.93;8.10;;;25.40;92.00;;;;;;4992644;28;20045;-78
2023/09/13 02:01:15;;;;;;;8.52;7.53;;;25.40;92.10;;;;;;5009339;28;21463;-77
2023/09/13 02:03:40;;;;;;;10.57;8.02;;;25.40;92.10;;;;;;5012932;28;20045;-77
2023/09/13 02:06:06;;;;;;;10.00;9.00;;;25.40;92.20;;;;;;5017738;28;20422;-77
2023/09/13 02:08:32;;;;;;;10.05;9.05;;;25.40;92.30;;;;;;5014532;28;20073;-77
2023/09/13 02:10:57;;;;;;;9.00;8.10;;;25.40;92.30;;;;;;5012468;28;20100;-77
2023/09/13 02:13:23;;;;;;;8.88;8.05;;;25.40;92.30;;;;;;5012717;28;20141;-77
2023/09/13 02:15:49;;;;;;;10.93;9.82;;;25.40;92.30;;;;;;4995473;28;20038;-77
2023/09/13 02:18:16;;;;;;;11.55;8.75;;;25.40;92.30;;;;;;5013998;28;20061;-77
2023/09/13 02:20:42;;;;;;;10.07;9.02;;;25.40;92.30;;;;;;5016367;28;20493;-76
2023/09/13 02:23:07;;;;;;;10.18;9.27;;;25.30;92.20;;;;;;5010457;28;20066;-77
2023/09/13 02:25:42;;;;;;;13.55;12.07;;;25.30;92.30;;;;;;4995388;28;20493;-77
2023/09/13 02:28:08;;;;;;;10.15;9.07;;;25.20;92.20;;;;;;5004234;28;20088;-77
2023/09/13 02:30:34;;;;;;;13.57;11.15;;;25.20;92.20;;;;;;5012304;28;20046;-77
2023/09/13 02:33:00;;;;;;;9.98;9.07;;;25.20;92.30;;;;;;5007041;28;20034;-77
2023/09/13 02:35:26;;;;;;;12.18;10.95;;;25.10;92.20;;;;;;5012365;28;20036;-77
2023/09/13 02:37:52;;;;;;;10.80;9.27;;;25.10;92.30;;;;;;5011473;28;20073;-76
2023/09/13 02:40:17;;;;;;;12.10;10.38;;;25.10;92.30;;;;;;5012972;28;20497;-76
2023/09/13 02:42:43;;;;;;;12.00;9.82;;;25.10;92.30;;;;;;4987400;28;20096;-77
2023/09/13 02:45:09;;;;;;;10.45;9.35;;;25.00;92.30;;;;;;5003526;28;20034;-77
2023/09/13 02:47:35;;;;;;;10.77;9.73;;;25.00;92.30;;;;;;4994772;28;20042;-78
2023/09/13 02:50:01;;;;;;;11.23;10.07;;;25.00;92.30;;;;;;4996772;28;20532;-78
2023/09/13 02:52:30;;;;;;;12.50;10.30;;;25.00;92.30;;;;;;5016484;28;20144;-79
2023/09/13 02:54:57;;;;;;;10.90;9.88;;;25.00;92.30;;;;;;5012525;28;20041;-79
2023/09/13 02:57:23;;;;;;;11.35;10.25;;;25.00;92.30;;;;;;5006347;28;20053;-79
2023/09/13 02:59:48;;;;;;;11.05;9.98;;;25.00;92.30;;;;;;5013400;28;20386;-80
2023/09/13 03:02:14;;;;;;;12.35;11.05;;;25.00;92.60;;;;;;5011067;28;20045;-80
2023/09/13 03:04:40;;;;;;;11.75;10.55;;;24.90;92.30;;;;;;5012678;28;20057;-80
2023/09/13 03:07:06;;;;;;;12.13;10.90;;;24.90;92.30;;;;;;5012947;28;20036;-79
2023/09/13 03:09:32;;;;;;;13.10;11.65;;;24.90;92.30;;;;;;5016892;28;20477;-82
2023/09/13 03:11:58;;;;;;;12.70;11.40;;;24.90;92.30;;;;;;5013346;28;20169;-81
2023/09/13 03:14:32;;;;;;;14.38;12.73;;;24.90;92.30;;;;;;5126992;27;20395;-79
2023/09/13 03:16:58;;;;;;;14.57;11.77;;;24.80;92.20;;;;;;5097623;28;20118;-79
2023/09/13 03:19:24;;;;;;;11.63;10.40;;;24.80;92.10;;;;;;5109892;28;20111;-79
2023/09/13 03:21:50;;;;;;;12.60;11.23;;;24.80;92.10;;;;;;5109552;28;20020;-78
2023/09/13 03:24:20;;;;;;;17.23;13.30;;;24.80;92.10;;;;;;5092240;28;20101;-78
2023/09/13 03:26:45;;;;;;;;;;;24.80;92.10;;;;;;5110801;28;20034;-78
2023/09/13 03:29:11;;;;;;;12.23;10.98;;;24.70;92.40;;;;;;5113682;28;19908;-77
2023/09/13 03:31:38;;;;;;;13.55;11.95;;;24.60;92.10;;;;;;5111561;28;20437;-79
2023/09/13 03:34:04;;;;;;;13.80;12.32;;;24.60;92.20;;;;;;5108419;28;20034;-79
2023/09/13 03:36:30;;;;;;;14.00;11.57;;;24.60;92.20;;;;;;5107866;28;20036;-80
2023/09/13 03:38:56;;;;;;;13.02;11.65;;;24.50;92.30;;;;;;5108415;28;20024;-81
2023/09/13 03:41:22;;;;;;;13.38;11.60;;;24.50;92.20;;;;;;5107222;28;20620;-81
2023/09/13 03:43:49;;;;;;;16.90;12.93;;;24.50;92.30;;;;;;5109295;28;20490;-80
2023/09/13 03:46:15;;;;;;;16.88;12.63;;;24.50;92.30;;;;;;5091355;28;20032;-79
2023/09/13 03:48:41;;;;;;;13.02;11.68;;;24.50;92.30;;;;;;5089297;28;20039;-79
2023/09/13 03:51:08;;;;;;;13.85;12.45;;;24.50;92.30;;;;;;5107859;28;20036;-80
2023/09/13 03:53:35;;;;;;;12.90;11.60;;;24.50;92.30;;;;;;5108279;28;20046;-80
2023/09/13 03:56:02;;;;;;;13.70;12.38;;;24.50;92.20;;;;;;5096258;28;20032;-89
2023/09/13 03:58:28;;;;;;;13.13;11.77;;;24.50;92.30;;;;;;5092161;28;20379;-89
2023/09/13 04:00:55;;;;;;;13.00;11.73;;;24.50;92.30;;;;;;5111129;28;20023;-92
2023/09/13 04:03:25;;;;;;;13.48;12.07;;;24.50;92.30;;;;;;5092286;28;20484;-92
2023/09/13 04:05:51;;;;;;;15.68;12.40;;;24.50;92.20;;;;;;5104490;28;20032;-91
2023/09/13 04:08:17;;;;;;;16.67;14.93;;;24.50;92.20;;;;;;5110633;28;20494;-91
2023/09/13 04:10:43;;;;;;;14.40;12.73;;;24.50;92.20;;;;;;5109218;28;20040;-91
2023/09/13 04:13:09;;;;;;;14.50;12.45;;;24.50;92.10;;;;;;5092206;28;20048;-91
2023/09/13 04:15:35;;;;;;;13.23;11.82;;;24.40;92.10;;;;;;5109034;28;20113;-90
2023/09/13 04:18:00;;;;;;;15.35;12.27;;;24.40;92.20;;;;;;5110304;28;20348;-91
2023/09/13 04:20:26;;;;;;;14.38;12.73;;;24.40;92.20;;;;;;5109349;28;20399;-88
2023/09/13 04:22:52;;;;;;;14.32;12.10;;;24.40;92.20;;;;;;5087002;28;20032;-89
2023/09/13 04:25:19;;;;;;;15.82;13.30;;;24.40;92.20;;;;;;5099039;28;20012;-90
2023/09/13 04:27:45;;;;;;;17.63;13.32;;;24.40;92.20;;;;;;5094803;28;20161;-89
2023/09/13 04:30:12;;;;;;;18.35;13.55;;;24.40;92.20;;;;;;5095219;28;20035;-90
2023/09/13 04:32:38;;;;;;;14.25;12.85;;;24.30;92.20;;;;;;5077907;28;20521;-87
2023/09/13 04:35:04;;;;;;;15.38;12.30;;;24.40;92.20;;;;;;5096215;28;20028;-88
2023/09/13 04:37:30;;;;;;;15.02;13.43;;;24.30;92.10;;;;;;5095480;28;20062;-87
2023/09/13 04:39:57;;;;;;;16.77;14.93;;;24.30;92.10;;;;;;5076341;28;20384;-87
2023/09/13 04:42:23;;;;;;;17.13;14.30;;;24.30;92.10;;;;;;5076212;28;20029;-89
2023/09/13 04:44:49;;;;;;;14.52;12.52;;;24.30;92.20;;;;;;5077934;28;20476;-88
2023/09/13 04:47:15;;;;;;;15.30;13.77;;;24.30;92.20;;;;;;5077252;28;20027;-88
2023/09/13 04:49:40;;;;;;;16.73;14.93;;;24.30;92.20;;;;;;5094333;28;20027;-88
2023/09/13 04:52:09;;;;;;;14.63;13.13;;;24.30;92.10;;;;;;5095654;28;20024;-87
2023/09/13 04:54:36;;;;;;;15.73;14.13;;;24.20;92.10;;;;;;5095749;28;20016;-87
2023/09/13 04:57:03;;;;;;;15.95;14.23;;;24.30;92.20;;;;;;5095123;28;20028;-89
2023/09/13 04:59:42;;;;;;;16.88;14.70;;;24.20;92.20;;;;;;5099695;28;20024;-88
2023/09/13 05:02:10;;;;;;;20.20;16.15;;;24.20;92.30;;;;;;5093181;28;20116;-88
2023/09/13 05:04:36;;;;;;;13.50;12.13;;;24.20;92.30;;;;;;5088452;28;20468;-89
2023/09/13 05:07:02;;;;;;;18.23;13.80;;;24.20;92.30;;;;;;5092830;28;20026;-89
2023/09/13 05:09:28;;;;;;;17.77;15.13;;;24.30;92.30;;;;;;5078786;28;20024;-88
2023/09/13 05:11:53;;;;;;;16.45;13.43;;;24.30;92.40;;;;;;5094781;28;20119;-90
2023/09/13 05:14:19;;;;;;;15.35;13.27;;;24.30;92.50;;;;;;5094677;28;20090;-90
2023/09/13 05:16:45;;;;;;;14.77;13.27;;;24.40;92.50;;;;;;5076168;28;20028;-91
2023/09/13 05:19:10;;;;;;;15.27;13.77;;;24.40;92.40;;;;;;5093784;28;20020;-93
2023/09/13 05:21:36;;;;;;;15.55;13.90;;;24.40;92.50;;;;;;5076875;28;20024;-85
2023/09/13 05:24:02;;;;;;;14.32;12.65;;;24.40;92.40;;;;;;5092410;28;20468;-84
2023/09/13 05:26:28;;;;;;;18.55;14.88;;;24.40;92.50;;;;;;5095247;28;20032;-90
2023/09/13 05:28:54;;;;;;;16.70;13.73;;;24.40;92.50;;;;;;5095873;28;20035;-89
2023/09/13 05:31:20;;;;;;;15.88;13.75;;;24.40;92.50;;;;;;5092101;28;20028;-83
2023/09/13 05:33:45;;;;;;;15.27;13.73;;;24.40;92.40;;;;;;5091452;28;20097;-83
2023/09/13 05:36:12;;;;;;;16.83;15.10;;;24.40;92.50;;;;;;5089267;28;20054;-85
2023/09/13 05:38:38;;;;;;;16.67;14.90;;;24.50;92.50;;;;;;5092716;28;20069;-83
2023/09/13 05:41:08;;;;;;;17.77;14.02;;;24.50;92.50;;;;;;5075227;28;20115;-83
2023/09/13 05:43:35;;;;;;;16.58;14.88;;;24.50;92.60;;;;;;5088792;28;20035;-83
2023/09/13 05:46:01;;;;;;;17.85;14.93;;;24.50;92.70;;;;;;5093751;28;20039;-83
2023/09/13 05:48:27;;;;;;;16.42;14.25;;;24.50;92.80;;;;;;5093363;28;20024;-83
2023/09/13 05:50:52;;;;;;;16.83;14.50;;;24.50;92.80;;;;;;5094079;28;20028;-83
2023/09/13 05:53:19;;;;;;;17.20;14.68;;;24.50;92.80;;;;;;5074352;28;20055;-83
2023/09/13 05:55:46;;;;;;;17.92;14.25;;;24.50;92.80;;;;;;5093477;28;20016;-83
2023/09/13 05:58:12;;;;;;;15.57;13.68;;;24.50;92.80;;;;;;5092477;28;20035;-83
2023/09/13 06:00:38;;;;;;;16.77;14.98;;;24.50;92.80;;;;;;5094344;28;20103;-83
2023/09/13 06:03:04;;;;;;;16.88;15.13;;;24.50;92.90;;;;;;5094175;28;20024;-83
2023/09/13 06:05:30;;;;;;;16.67;13.77;;;24.50;92.90;;;;;;5075976;28;20035;-83
2023/09/13 06:07:56;;;;;;;16.02;14.32;;;24.50;92.90;;;;;;5093487;28;20086;-82
2023/09/13 06:10:21;;;;;;;16.17;14.52;;;24.50;92.90;;;;;;5074022;28;20035;-81
2023/09/13 06:12:47;;;;;;;19.58;15.75;;;24.50;92.90;;;;;;5092871;28;20063;-89
2023/09/13 06:15:13;;;;;;;14.38;12.63;;;24.40;93.00;;;;;;5093000;28;20028;-83
2023/09/13 06:17:38;;;;;;;15.73;13.48;;;24.40;93.10;;;;;;5093582;28;20055;-80
2023/09/13 06:20:05;;;;;;;15.18;13.68;;;24.50;93.00;;;;;;5094193;28;20016;-82
2023/09/13 06:22:32;;;;;;;21.38;17.90;;;24.50;93.00;;;;;;5093236;28;20431;-78
2023/09/13 06:24:59;;;;;;;21.55;18.85;;;24.50;93.10;;;;;;5092850;28;20062;-78
2023/09/13 06:27:26;;;;;;;19.73;16.42;;;24.50;93.00;;;;;;5093129;28;20047;-78
2023/09/13 06:29:52;;;;;;;29.33;25.30;;;24.50;93.00;;;;;;5077675;28;20019;-79
2023/09/13 06:32:18;;;;;;;28.30;22.00;;;24.30;93.00;;;;;;5092755;28;20036;-77
2023/09/13 06:34:44;;;;;;;21.20;16.55;;;24.10;93.40;;;;;;5073948;28;20529;-77
2023/09/13 06:37:10;;;;;;;15.43;13.77;;;24.10;93.50;;;;;;5092259;28;20028;-76
2023/09/13 06:39:35;;;;;;;31.60;23.38;;;24.10;93.50;;;;;;5091947;28;20020;-77
2023/09/13 06:42:02;;;;;;;24.17;20.95;;;24.10;93.60;;;;;;5073196;28;20143;-77
2023/09/13 06:44:28;;;;;;;26.77;23.65;;;24.00;93.60;;;;;;5092056;28;20036;-77
2023/09/13 06:46:53;;;;;;;22.02;18.77;;;23.90;93.80;;;;;;5092620;28;20044;-77
2023/09/13 06:49:19;;;;;;;36.50;24.15;;;23.90;93.90;;;;;;5093052;28;20020;-78
2023/09/13 06:51:45;;;;;;;26.60;22.67;;;23.90;94.00;;;;;;5093615;28;20064;-78
2023/09/13 06:54:11;;;;;;;34.10;26.88;;;23.90;94.00;;;;;;5093395;28;20020;-78
2023/09/13 06:56:37;;;;;;;16.90;15.20;;;23.90;94.20;;;;;;5075328;28;20028;-78
2023/09/13 06:59:03;;;;;;;35.10;27.27;;;23.90;94.10;;;;;;5093158;28;20103;-78
2023/09/13 07:01:29;;;;;;;31.63;27.25;;;23.90;94.30;;;;;;5093392;28;20024;-78
2023/09/13 07:03:57;;;;;;;28.50;24.52;;;23.90;94.50;;;;;;5093130;28;20107;-77
2023/09/13 07:06:23;;;;;;;19.05;13.63;;;23.80;94.70;;;;;;5092780;28;20495;-78
2023/09/13 07:08:49;;;;;;;21.55;19.25;;;23.90;94.70;;;;;;5092779;28;20468;-78
2023/09/13 07:11:18;;;;;;;26.10;21.92;;;23.90;94.70;;;;;;5092598;28;20036;-77
2023/09/13 07:13:43;;;;;;;30.77;23.23;;;24.00;94.80;;;;;;5092595;28;20589;-78
2023/09/13 07:16:09;;;;;;;20.88;18.77;;;24.00;94.90;;;;;;5074714;28;20073;-77
2023/09/13 07:18:35;;;;;;;29.13;24.52;;;24.10;94.80;;;;;;5092628;28;20099;-78
2023/09/13 07:21:00;;;;;;;28.02;24.33;;;24.20;94.90;;;;;;5093139;28;20384;-78
2023/09/13 07:23:27;;;;;;;22.90;19.80;;;24.30;95.00;;;;;;5092986;28;20032;-78
2023/09/13 07:25:53;;;;;;;33.10;24.02;;;24.30;94.90;;;;;;5093293;28;20477;-76
2023/09/13 07:28:20;;;;;;;24.88;20.00;;;24.40;94.90;;;;;;5074793;28;20024;-77
2023/09/13 07:30:46;;;;;;;16.00;13.25;;;24.50;94.80;;;;;;5092895;28;20025;-77
2023/09/13 07:33:12;;;;;;;16.83;12.65;;;24.60;94.80;;;;;;5092640;28;20032;-78
2023/09/13 07:35:38;;;;;;;13.65;12.35;;;24.80;94.60;;;;;;5074874;28;20024;-78
2023/09/13 07:38:04;;;;;;;17.73;14.60;;;25.00;94.50;;;;;;5092945;28;20480;-77
2023/09/13 07:40:30;;;;;;;17.58;15.77;;;25.10;94.40;;;;;;5074767;28;20028;-77
2023/09/13 07:42:56;;;;;;;14.23;12.73;;;25.30;94.20;;;;;;5092884;28;20528;-78
2023/09/13 07:45:21;;;;;;;14.85;11.07;;;25.40;94.00;;;;;;5093013;28;20028;-77
2023/09/13 07:47:49;;;;;;;14.00;10.38;;;25.60;93.90;;;;;;5074786;28;20024;-77
2023/09/13 07:50:41;;;;;;;10.32;9.18;;;25.80;93.90;;;;;;5075086;28;20127;-78
2023/09/13 07:53:11;;;;;;;13.05;11.60;;;26.10;93.90;;;;;;5072745;28;20547;-78
2023/09/13 07:55:38;;;;;;;13.25;10.60;;;26.20;93.70;;;;;;5092577;28;20056;-78
2023/09/13 07:58:04;;;;;;;12.27;11.07;;;26.30;93.60;;;;;;5092881;28;20032;-77
2023/09/13 08:00:30;;;;;;;9.95;8.52;;;26.40;93.40;;;;;;5095408;28;20028;-76
2023/09/13 08:02:58;;;;;;;10.50;9.40;;;26.50;93.40;;;;;;5096860;28;20050;-77
2023/09/13 08:05:24;;;;;;;12.00;7.88;;;26.60;93.30;;;;;;5096678;28;20032;-78
2023/09/13 08:07:50;;;;;;;11.75;8.13;;;26.60;93.40;;;;;;5096537;28;20020;-78
2023/09/13 08:10:15;;;;;;;9.35;7.82;;;26.60;93.40;;;;;;5096375;28;20422;-77
2023/09/13 08:12:41;;;;;;;15.15;9.68;;;26.70;93.30;;;;;;5095902;28;20047;-78
2023/09/13 08:15:09;;;;;;;9.93;8.60;;;26.70;93.10;;;;;;5096251;28;20031;-77
2023/09/13 08:17:35;;;;;;;10.70;7.93;;;26.70;93.10;;;;;;5096321;28;20036;-81
2023/09/13 08:20:04;;;;;;;8.00;7.22;;;26.80;93.10;;;;;;5096162;28;20024;-77
2023/09/13 08:22:30;;;;;;;7.20;6.55;;;26.80;93.00;;;;;;5096388;28;20039;-77
2023/09/13 08:24:56;;;;;;;8.55;7.72;;;26.80;93.10;;;;;;5096358;28;20468;-77
2023/09/13 08:27:22;;;;;;;8.90;7.78;;;26.80;93.10;;;;;;5096340;28;20024;-76
2023/09/13 08:29:47;;;;;;;10.40;8.20;;;26.70;93.10;;;;;;5096251;28;20095;-76
2023/09/13 08:32:13;;;;;;;14.23;7.38;;;26.70;93.00;;;;;;5096305;28;20028;-77
2023/09/13 08:34:39;;;;;;;6.78;6.05;;;26.80;93.00;;;;;;5077995;28;20024;-77
2023/09/13 08:37:04;;;;;;;6.20;5.60;;;26.80;93.00;;;;;;5095970;28;20388;-77
2023/09/13 08:39:30;;;;;;;12.55;8.60;;;26.90;92.90;;;;;;5095797;28;20024;-77
2023/09/13 08:41:56;;;;;;;6.68;6.03;;;26.90;92.80;;;;;;5077163;28;20082;-77
2023/09/13 08:44:23;;;;;;;6.28;5.50;;;26.90;92.80;;;;;;5095813;28;20035;-77
2023/09/13 08:46:50;;;;;;;6.18;5.57;;;26.90;92.70;;;;;;5077665;28;20028;-77
2023/09/13 08:49:20;;;;;;;6.72;5.90;;;26.90;92.60;;;;;;5095739;28;20032;-77
2023/09/13 08:51:46;;;;;;;5.82;5.32;;;27.00;92.60;;;;;;5095791;28;20475;-77
2023/09/13 08:54:13;;;;;;;6.28;5.57;;;27.00;92.50;;;;;;5095689;28;20020;-77
2023/09/13 08:56:43;;;;;;;7.40;5.20;;;27.00;92.40;;;;;;5095629;28;20024;-77
2023/09/13 08:59:28;;;;;;;7.63;5.38;;;27.10;92.40;;;;;;5093475;28;20024;-77
2023/09/13 09:01:56;;;;;;;5.72;5.15;;;27.10;91.90;;;;;;5091779;28;20038;-77
2023/09/13 09:04:21;;;;;;;6.28;5.18;;;27.10;91.90;;;;;;5095124;28;20032;-77
2023/09/13 09:06:47;;;;;;;5.68;5.10;;;27.10;91.80;;;;;;5095335;28;20039;-78
2023/09/13 09:09:20;;;;;;;6.95;5.20;;;27.10;91.80;;;;;;5095169;28;20032;-87
2023/09/13 09:11:54;;;;;;;5.15;4.65;;;27.10;91.80;;;;;;5094429;28;20031;-87
2023/09/13 09:14:21;;;;;;;6.00;5.22;;;27.10;91.80;;;;;;5095275;28;20042;-87
2023/09/13 09:16:49;;;;;;;7.75;6.97;;;27.10;91.80;;;;;;5095577;28;20027;-87
2023/09/13 09:19:15;;;;;;;9.73;7.68;;;27.10;91.90;;;;;;5095189;28;20017;-87
2023/09/13 09:21:41;;;;;;;10.57;8.43;;;27.00;92.00;;;;;;5077411;28;20035;-87
2023/09/13 09:24:07;;;;;;;14.02;10.65;;;27.00;92.20;;;;;;5095377;28;20060;-87
2023/09/13 09:26:33;;;;;;;11.93;9.80;;;27.00;92.60;;;;;;5095041;28;20028;-87
2023/09/13 09:29:12;;;;;;;11.88;10.63;;;26.90;92.70;;;;;;5097216;28;20420;-87
2023/09/13 09:31:41;;;;;;;12.38;11.23;;;26.90;93.00;;;;;;5094893;28;20024;-86
2023/09/13 09:34:10;;;;;;;11.70;10.37;;;26.80;93.10;;;;;;5094487;28;20055;-87
2023/09/13 09:36:40;;;;;;;12.90;11.80;;;26.70;93.20;;;;;;5095032;28;20035;-87
2023/09/13 09:39:07;;;;;;;18.75;15.65;;;26.70;93.40;;;;;;5094969;28;20028;-87
2023/09/13 09:41:36;;;;;;;19.33;17.33;;;26.60;93.80;;;;;;5095785;28;20101;-88
2023/09/13 09:44:03;;;;;;;16.88;13.63;;;26.50;93.80;;;;;;5094884;28;20028;-88
2023/09/13 09:46:30;;;;;;;13.15;9.88;;;26.50;93.90;;;;;;5094541;28;20369;-87
2023/09/13 09:48:56;;;;;;;13.10;10.35;;;26.40;93.80;;;;;;5095323;28;20039;-88
2023/09/13 09:51:22;;;;;;;12.52;11.27;;;26.40;93.90;;;;;;5095085;28;20028;-87
2023/09/13 09:53:48;;;;;;;12.65;10.75;;;26.50;94.00;;;;;;5094865;28;20032;-88
2023/09/13 09:56:16;;;;;;;10.88;9.77;;;26.50;93.90;;;;;;5095177;28;20016;-88
2023/09/13 09:58:42;;;;;;;13.65;12.25;;;26.50;93.90;;;;;;5094917;28;20031;-88
2023/09/13 10:01:11;;;;;;;9.13;8.27;;;26.50;94.00;;;;;;5095017;28;20086;-88
2023/09/13 10:03:37;;;;;;;12.02;10.82;;;26.50;93.90;;;;;;5093521;28;20171;-88
2023/09/13 10:06:12;;;;;;;10.82;9.57;;;26.50;94.00;;;;;;5076720;28;20024;-88
2023/09/13 10:08:44;;;;;;;10.30;9.30;;;26.50;93.90;;;;;;5094940;28;20020;-87
2023/09/13 10:11:15;;;;;;;13.05;10.55;;;26.50;93.90;;;;;;5094538;28;20032;-87
2023/09/13 10:13:42;;;;;;;25.42;16.13;;;26.60;94.20;;;;;;5094316;28;20488;-88
2023/09/13 10:16:11;;;;;;;18.90;16.92;;;26.60;94.40;;;;;;5094735;28;20035;-87
2023/09/13 10:18:51;;;;;;;12.52;10.57;;;26.50;94.70;;;;;;5094600;28;20027;-87
2023/09/13 10:21:29;;;;;;;20.15;14.00;;;26.50;94.50;;;;;;5094359;28;20047;-88
2023/09/13 10:24:06;;;;;;;18.58;12.48;;;26.40;94.80;;;;;;5093679;28;20016;-87
2023/09/13 10:26:33;;;;;;;10.80;8.73;;;26.50;95.00;;;;;;5094343;28;20436;-87
2023/09/13 10:29:10;;;;;;;10.05;9.05;;;26.50;94.80;;;;;;5075306;28;20032;-87
2023/09/13 10:31:41;;;;;;;11.77;10.18;;;26.50;94.90;;;;;;5075881;28;20476;-86
2023/09/13 10:34:14;;;;;;;9.48;8.30;;;26.50;94.90;;;;;;5092777;28;20063;-77
2023/09/13 10:36:47;;;;;;;10.20;9.05;;;26.50;94.70;;;;;;5093903;28;20099;-77
2023/09/13 10:39:21;;;;;;;9.45;8.43;;;26.50;94.70;;;;;;5093035;28;20336;-77
2023/09/13 10:41:54;;;;;;;9.77;8.85;;;26.60;94.60;;;;;;5074911;28;20047;-77
2023/09/13 10:44:21;;;;;;;9.85;8.65;;;26.60;94.60;;;;;;5093712;28;20032;-77
2023/09/13 10:46:47;;;;;;;9.23;8.30;;;26.60;94.60;;;;;;5098851;28;20108;-77
2023/09/13 10:49:13;;;;;;;10.43;9.15;;;26.60;94.70;;;;;;5098679;28;20035;-78
2023/09/13 10:51:41;;;;;;;10.15;9.15;;;26.60;94.60;;;;;;5075507;28;20389;-77
2023/09/13 10:54:08;;;;;;;15.32;13.48;;;26.60;94.40;;;;;;5075105;28;20433;-77
2023/09/13 10:56:35;;;;;;;12.25;11.02;;;26.60;94.20;;;;;;5075347;28;20034;-77
2023/09/13 10:59:01;;;;;;;15.40;13.27;;;26.50;94.10;;;;;;5093467;28;20073;-78
2023/09/13 11:01:28;;;;;;;10.20;8.93;;;26.50;94.30;;;;;;5093389;28;20035;-78
2023/09/13 11:03:54;;;;;;;10.65;8.57;;;26.40;94.40;;;;;;5100091;28;20770;-78
2023/09/13 11:06:23;;;;;;;9.57;8.68;;;26.50;94.50;;;;;;5074966;28;20039;-78
2023/09/13 11:08:49;;;;;;;8.98;8.07;;;26.50;94.30;;;;;;5092928;28;20023;-77
2023/09/13 11:11:18;;;;;;;8.77;7.75;;;26.50;94.30;;;;;;5093325;28;20032;-87
2023/09/13 11:13:46;;;;;;;10.48;9.55;;;26.60;94.30;;;;;;5074987;28;20055;-87
2023/09/13 11:16:16;;;;;;;10.63;9.32;;;26.60;94.10;;;;;;5093570;28;20024;-87
2023/09/13 11:18:46;;;;;;;;;;;26.60;93.90;;;;;;5095848;28;20490;-86
2023/09/13 11:21:44;;;;;;;12.57;9.52;;;26.60;94.20;;;;;;5093222;28;19908;-87
2023/09/13 11:24:11;;;;;;;7.63;6.93;;;26.70;93.60;;;;;;5101086;28;20111;-87
2023/09/13 11:26:50;;;;;;;14.73;11.88;;;26.80;93.50;;;;;;5092807;28;20103;-87
2023/09/13 11:29:26;;;;;;;8.60;6.60;;;26.90;92.90;;;;;;5074243;28;20380;-88
2023/09/13 11:31:59;;;;;;;10.55;8.27;;;27.00;93.00;;;;;;5092501;28;20028;-87
2023/09/13 11:34:25;;;;;;;7.70;6.85;;;27.10;92.60;;;;;;5094229;28;20040;-87
2023/09/13 11:36:59;;;;;;;8.68;6.57;;;27.10;92.40;;;;;;5097660;28;20021;-86
2023/09/13 11:39:26;;;;;;;7.10;6.40;;;27.30;92.60;;;;;;5097552;28;20028;-81
2023/09/13 11:41:53;;;;;;;12.73;9.13;;;27.40;92.60;;;;;;5097239;28;20065;-87
2023/09/13 11:44:21;;;;;;;6.88;6.18;;;27.40;91.30;;;;;;5079363;28;20452;-77
2023/09/13 11:46:49;;;;;;;6.18;5.57;;;27.40;91.80;;;;;;5097221;28;20024;-78
2023/09/13 11:49:26;;;;;;;10.82;5.75;;;27.50;91.90;;;;;;5078354;28;20090;-78
2023/09/13 11:52:01;;;;;;;7.63;6.22;;;27.50;92.00;;;;;;5060796;28;20086;-78
2023/09/13 11:54:26;;;;;;;11.30;6.50;;;27.60;91.80;;;;;;5095415;28;20376;-78
2023/09/13 11:56:54;;;;;;;6.55;5.95;;;27.60;91.70;;;;;;5096883;28;20031;-78
2023/09/13 11:59:29;;;;;;;9.70;7.15;;;27.60;91.50;;;;;;5100843;28;20546;-78
2023/09/13 12:01:55;;;;;;;9.00;7.70;;;27.60;91.50;;;;;;5117224;28;20024;-78
2023/09/13 12:04:24;;;;;;;7.70;6.97;;;27.60;91.40;;;;;;5108075;28;20028;-78
2023/09/13 12:06:55;;;;;;;6.53;5.93;;;27.60;91.30;;;;;;5096706;28;20028;-78
2023/09/13 12:09:22;;;;;;;7.05;6.28;;;27.60;91.40;;;;;;5096642;28;20043;-78
2023/09/13 12:11:50;;;;;;;8.73;6.00;;;27.70;91.40;;;;;;5099544;28;20058;-78
2023/09/13 12:14:17;;;;;;;8.68;6.90;;;27.70;91.20;;;;;;5116766;28;20040;-78
2023/09/13 12:16:43;;;;;;;8.43;5.43;;;27.80;91.20;;;;;;5098248;28;20024;-78
2023/09/13 12:19:12;;;;;;;5.97;5.47;;;27.90;91.10;;;;;;5116851;28;20077;-78
2023/09/13 12:21:43;;;;;;;6.13;5.53;;;28.10;90.90;;;;;;5116849;28;20023;-78
2023/09/13 12:24:12;;;;;;;6.80;6.18;;;28.10;90.80;;;;;;5108335;28;20123;-77
2023/09/13 12:26:39;;;;;;;6.60;5.90;;;28.20;90.70;;;;;;5096221;28;20415;-76
2023/09/13 12:29:05;;;;;;;7.35;6.18;;;28.30;90.60;;;;;;5092060;28;20278;-76
2023/09/13 12:31:32;;;;;;;6.95;6.25;;;28.40;90.60;;;;;;5096653;28;20059;-81
2023/09/13 12:33:59;;;;;;;6.43;5.80;;;28.60;90.40;;;;;;5077907;28;20520;-78
2023/09/13 12:36:25;;;;;;;5.80;5.30;;;28.80;90.20;;;;;;5078706;28;20056;-79
2023/09/13 12:38:52;;;;;;;6.97;6.28;;;28.80;90.00;;;;;;5096050;28;20048;-78